sensor_id;sensor_type;location;lat;lon;timestamp;temperature;humidity
7648;DHT22;3866;48.020;11.720;2022-07-18T00:02:04;14.60;99.90
7648;DHT22;3866;48.020;11.720;2022-07-18T00:04:32;14.60;99.90
7648;DHT22;3866;48.020;11.720;2022-07-18T00:06:59;14.60;99.90
7648;DHT22;3866;48.020;11.720;2022-07-18T00:09:30;14.50;99.90
7648;DHT22;3866;48.020;11.720;2022-07-18T00:11:58;14.30;99.90
7648;DHT22;3866;48.020;11.720;2022-07-18T00:14:26;14.20;99.90
7648;DHT22;3866;48.020;11.720;2022-07-18T00:16:53;14.10;99.90
7648;DHT22;3866;48.020;11.720;2022-07-18T00:19:25;14.00;99.90
7648;DHT22;3866;48.020;11.720;2022-07-18T00:21:55;13.90;99.90
7648;DHT22;3866;48.020;11.720;2022-07-18T00:24:23;13.90;99.90
7648;DHT22;3866;48.020;11.720;2022-07-18T00:26:52;13.90;99.90
7648;DHT22;3866;48.020;11.720;2022-07-18T00:29:20;13.90;99.90
7648;DHT22;3866;48.020;11.720;2022-07-18T00:31:48;14.00;99.90
7648;DHT22;3866;48.020;11.720;2022-07-18T00:34:16;14.00;99.90
7648;DHT22;3866;48.020;11.720;2022-07-18T00:36:44;14.00;99.90
7648;DHT22;3866;48.020;11.720;2022-07-18T00:39:13;13.90;99.90
7648;DHT22;3866;48.020;11.720;2022-07-18T00:41:45;13.90;99.90
7648;DHT22;3866;48.020;11.720;2022-07-18T00:44:17;13.80;99.90
7648;DHT22;3866;48.020;11.720;2022-07-18T00:46:46;13.90;99.90
7648;DHT22;3866;48.020;11.720;2022-07-18T00:49:16;13.80;99.90
7648;DHT22;3866;48.020;11.720;2022-07-18T00:51:44;13.80;99.90
7648;DHT22;3866;48.020;11.720;2022-07-18T00:54:11;13.80;99.90
7648;DHT22;3866;48.020;11.720;2022-07-18T00:56:40;13.80;99.90
7648;DHT22;3866;48.020;11.720;2022-07-18T00:59:10;13.80;99.90
7648;DHT22;3866;48.020;11.720;2022-07-18T01:01:43;13.80;99.90
7648;DHT22;3866;48.020;11.720;2022-07-18T01:04:10;13.80;99.90
7648;DHT22;3866;48.020;11.720;2022-07-18T01:06:40;13.70;99.90
7648;DHT22;3866;48.020;11.720;2022-07-18T01:09:09;13.70;99.90
7648;DHT22;3866;48.020;11.720;2022-07-18T01:11:37;13.60;99.90
7648;DHT22;3866;48.020;11.720;2022-07-18T01:14:05;13.40;99.90
7648;DHT22;3866;48.020;11.720;2022-07-18T01:16:33;13.40;99.90
7648;DHT22;3866;48.020;11.720;2022-07-18T01:19:03;13.40;99.90
7648;DHT22;3866;48.020;11.720;2022-07-18T01:21:31;13.30;99.90
7648;DHT22;3866;48.020;11.720;2022-07-18T01:24:00;13.30;99.90
7648;DHT22;3866;48.020;11.720;2022-07-18T01:26:27;13.20;99.90
7648;DHT22;3866;48.020;11.720;2022-07-18T01:28:54;13.20;99.90
7648;DHT22;3866;48.020;11.720;2022-07-18T01:31:22;13.20;99.90
7648;DHT22;3866;48.020;11.720;2022-07-18T01:33:49;13.20;99.90
7648;DHT22;3866;48.020;11.720;2022-07-18T01:36:20;13.20;99.90
7648;DHT22;3866;48.020;11.720;2022-07-18T01:38:50;13.30;99.90
7648;DHT22;3866;48.020;11.720;2022-07-18T01:41:18;13.30;99.90
7648;DHT22;3866;48.020;11.720;2022-07-18T01:43:46;13.30;99.90
7648;DHT22;3866;48.020;11.720;2022-07-18T01:46:13;13.30;99.90
7648;DHT22;3866;48.020;11.720;2022-07-18T01:48:41;13.20;99.90
7648;DHT22;3866;48.020;11.720;2022-07-18T01:51:09;13.10;99.90
7648;DHT22;3866;48.020;11.720;2022-07-18T01:53:36;13.10;99.90
7648;DHT22;3866;48.020;11.720;2022-07-18T01:56:07;13.10;99.90
7648;DHT22;3866;48.020;11.720;2022-07-18T01:58:34;13.00;99.90
7648;DHT22;3866;48.020;11.720;2022-07-18T02:01:03;13.00;99.90
7648;DHT22;3866;48.020;11.720;2022-07-18T02:03:30;13.00;99.90
7648;DHT22;3866;48.020;11.720;2022-07-18T02:05:57;12.90;99.90
7648;DHT22;3866;48.020;11.720;2022-07-18T02:08:26;12.80;99.90
7648;DHT22;3866;48.020;11.720;2022-07-18T02:10:54;12.80;99.90
7648;DHT22;3866;48.020;11.720;2022-07-18T02:13:24;12.80;99.90
7648;DHT22;3866;48.020;11.720;2022-07-18T02:15:50;12.80;99.90
7648;DHT22;3866;48.020;11.720;2022-07-18T02:18:20;12.80;99.90
7648;DHT22;3866;48.020;11.720;2022-07-18T02:20:48;12.70;99.90
7648;DHT22;3866;48.020;11.720;2022-07-18T02:23:16;12.60;99.90
7648;DHT22;3866;48.020;11.720;2022-07-18T02:25:44;12.60;99.90
7648;DHT22;3866;48.020;11.720;2022-07-18T02:28:11;12.70;99.90
7648;DHT22;3866;48.020;11.720;2022-07-18T02:30:41;12.60;99.90
7648;DHT22;3866;48.020;11.720;2022-07-18T02:33:08;12.60;99.90
7648;DHT22;3866;48.020;11.720;2022-07-18T02:35:37;12.50;99.90
7648;DHT22;3866;48.020;11.720;2022-07-18T02:38:04;12.50;99.90
7648;DHT22;3866;48.020;11.720;2022-07-18T02:40:32;12.40;99.90
7648;DHT22;3866;48.020;11.720;2022-07-18T02:42:59;12.40;99.90
7648;DHT22;3866;48.020;11.720;2022-07-18T02:45:26;12.40;99.90
7648;DHT22;3866;48.020;11.720;2022-07-18T02:47:56;12.40;99.90
7648;DHT22;3866;48.020;11.720;2022-07-18T02:50:27;12.40;99.90
7648;DHT22;3866;48.020;11.720;2022-07-18T02:52:55;12.30;99.90
7648;DHT22;3866;48.020;11.720;2022-07-18T02:55:24;12.30;99.90
7648;DHT22;3866;48.020;11.720;2022-07-18T02:57:51;12.30;99.90
7648;DHT22;3866;48.020;11.720;2022-07-18T03:00:18;12.30;99.90
7648;DHT22;3866;48.020;11.720;2022-07-18T03:02:47;12.30;99.90
7648;DHT22;3866;48.020;11.720;2022-07-18T03:05:16;12.30;99.90
7648;DHT22;3866;48.020;11.720;2022-07-18T03:07:44;12.40;99.90
7648;DHT22;3866;48.020;11.720;2022-07-18T03:10:11;12.40;99.90
7648;DHT22;3866;48.020;11.720;2022-07-18T03:12:40;12.40;99.90
7648;DHT22;3866;48.020;11.720;2022-07-18T03:15:11;12.50;99.90
7648;DHT22;3866;48.020;11.720;2022-07-18T03:17:37;12.50;99.90
7648;DHT22;3866;48.020;11.720;2022-07-18T03:20:06;12.40;99.90
7648;DHT22;3866;48.020;11.720;2022-07-18T03:22:36;12.50;99.90
7648;DHT22;3866;48.020;11.720;2022-07-18T03:25:05;12.50;99.90
7648;DHT22;3866;48.020;11.720;2022-07-18T03:27:32;12.50;99.90
7648;DHT22;3866;48.020;11.720;2022-07-18T03:29:59;12.50;99.90
7648;DHT22;3866;48.020;11.720;2022-07-18T03:32:26;12.40;99.90
7648;DHT22;3866;48.020;11.720;2022-07-18T03:34:54;12.40;99.90
7648;DHT22;3866;48.020;11.720;2022-07-18T03:37:22;12.20;99.90
7648;DHT22;3866;48.020;11.720;2022-07-18T03:39:50;12.20;99.90
7648;DHT22;3866;48.020;11.720;2022-07-18T03:42:19;12.20;99.90
7648;DHT22;3866;48.020;11.720;2022-07-18T03:44:47;12.20;99.90
7648;DHT22;3866;48.020;11.720;2022-07-18T03:47:17;12.20;99.90
7648;DHT22;3866;48.020;11.720;2022-07-18T03:49:45;12.20;99.90
7648;DHT22;3866;48.020;11.720;2022-07-18T03:52:13;12.30;99.90
7648;DHT22;3866;48.020;11.720;2022-07-18T03:54:42;12.40;99.90
7648;DHT22;3866;48.020;11.720;2022-07-18T03:57:12;12.50;99.90
7648;DHT22;3866;48.020;11.720;2022-07-18T03:59:38;12.50;99.90
7648;DHT22;3866;48.020;11.720;2022-07-18T04:02:06;12.50;99.90
7648;DHT22;3866;48.020;11.720;2022-07-18T04:04:34;12.30;99.90
7648;DHT22;3866;48.020;11.720;2022-07-18T04:07:05;12.20;99.90
7648;DHT22;3866;48.020;11.720;2022-07-18T04:09:32;12.20;99.90
7648;DHT22;3866;48.020;11.720;2022-07-18T04:11:59;12.30;99.90
7648;DHT22;3866;48.020;11.720;2022-07-18T04:14:28;12.30;99.90
7648;DHT22;3866;48.020;11.720;2022-07-18T04:16:54;12.50;99.90
7648;DHT22;3866;48.020;11.720;2022-07-18T04:19:25;12.60;99.90
7648;DHT22;3866;48.020;11.720;2022-07-18T04:21:52;12.70;99.90
7648;DHT22;3866;48.020;11.720;2022-07-18T04:24:20;12.80;99.90
7648;DHT22;3866;48.020;11.720;2022-07-18T04:26:48;12.90;99.90
7648;DHT22;3866;48.020;11.720;2022-07-18T04:29:19;13.00;99.90
7648;DHT22;3866;48.020;11.720;2022-07-18T04:31:47;13.20;99.90
7648;DHT22;3866;48.020;11.720;2022-07-18T04:34:15;13.40;99.90
7648;DHT22;3866;48.020;11.720;2022-07-18T04:36:43;13.50;99.90
7648;DHT22;3866;48.020;11.720;2022-07-18T04:39:10;13.40;99.90
7648;DHT22;3866;48.020;11.720;2022-07-18T04:41:38;13.40;99.90
7648;DHT22;3866;48.020;11.720;2022-07-18T04:44:06;13.30;99.90
7648;DHT22;3866;48.020;11.720;2022-07-18T04:46:34;13.30;99.90
7648;DHT22;3866;48.020;11.720;2022-07-18T04:49:05;13.40;99.90
7648;DHT22;3866;48.020;11.720;2022-07-18T04:51:32;13.40;99.90
7648;DHT22;3866;48.020;11.720;2022-07-18T04:53:59;13.50;99.90
7648;DHT22;3866;48.020;11.720;2022-07-18T04:56:27;13.50;99.90
7648;DHT22;3866;48.020;11.720;2022-07-18T04:58:54;13.50;99.90
7648;DHT22;3866;48.020;11.720;2022-07-18T05:01:21;13.70;99.90
7648;DHT22;3866;48.020;11.720;2022-07-18T05:03:47;13.90;99.90
7648;DHT22;3866;48.020;11.720;2022-07-18T05:06:18;14.20;99.90
7648;DHT22;3866;48.020;11.720;2022-07-18T05:08:45;14.40;99.90
7648;DHT22;3866;48.020;11.720;2022-07-18T05:11:13;14.50;99.90
7648;DHT22;3866;48.020;11.720;2022-07-18T05:13:41;14.50;99.90
7648;DHT22;3866;48.020;11.720;2022-07-18T05:16:08;14.60;99.90
7648;DHT22;3866;48.020;11.720;2022-07-18T05:18:37;14.70;99.90
7648;DHT22;3866;48.020;11.720;2022-07-18T05:21:04;15.00;99.90
7648;DHT22;3866;48.020;11.720;2022-07-18T05:23:45;15.30;99.90
7648;DHT22;3866;48.020;11.720;2022-07-18T05:26:16;15.50;99.90
7648;DHT22;3866;48.020;11.720;2022-07-18T05:28:44;15.90;99.90
7648;DHT22;3866;48.020;11.720;2022-07-18T05:31:13;16.30;99.90
7648;DHT22;3866;48.020;11.720;2022-07-18T05:33:40;16.60;99.90
7648;DHT22;3866;48.020;11.720;2022-07-18T05:36:09;16.60;99.90
7648;DHT22;3866;48.020;11.720;2022-07-18T05:38:38;16.80;99.90
7648;DHT22;3866;48.020;11.720;2022-07-18T05:41:06;17.00;99.90
7648;DHT22;3866;48.020;11.720;2022-07-18T05:43:33;17.30;99.90
7648;DHT22;3866;48.020;11.720;2022-07-18T05:46:00;17.40;99.90
7648;DHT22;3866;48.020;11.720;2022-07-18T05:48:27;17.40;99.90
7648;DHT22;3866;48.020;11.720;2022-07-18T05:50:56;17.50;99.90
7648;DHT22;3866;48.020;11.720;2022-07-18T05:53:25;17.60;99.90
7648;DHT22;3866;48.020;11.720;2022-07-18T05:55:54;17.60;99.90
7648;DHT22;3866;48.020;11.720;2022-07-18T05:58:22;17.70;99.90
7648;DHT22;3866;48.020;11.720;2022-07-18T06:00:50;17.80;99.90
7648;DHT22;3866;48.020;11.720;2022-07-18T06:03:17;18.00;99.90
7648;DHT22;3866;48.020;11.720;2022-07-18T06:05:45;18.10;99.90
7648;DHT22;3866;48.020;11.720;2022-07-18T06:08:13;18.20;99.90
7648;DHT22;3866;48.020;11.720;2022-07-18T06:10:41;18.20;99.90
7648;DHT22;3866;48.020;11.720;2022-07-18T06:13:11;18.50;99.90
7648;DHT22;3866;48.020;11.720;2022-07-18T06:15:39;18.70;99.90
7648;DHT22;3866;48.020;11.720;2022-07-18T06:18:09;18.80;99.90
7648;DHT22;3866;48.020;11.720;2022-07-18T06:20:37;19.10;99.90
7648;DHT22;3866;48.020;11.720;2022-07-18T06:23:04;19.30;99.90
7648;DHT22;3866;48.020;11.720;2022-07-18T06:25:34;19.30;99.90
7648;DHT22;3866;48.020;11.720;2022-07-18T06:28:03;19.20;99.90
7648;DHT22;3866;48.020;11.720;2022-07-18T06:30:34;19.30;99.90
7648;DHT22;3866;48.020;11.720;2022-07-18T06:33:03;19.40;99.90
7648;DHT22;3866;48.020;11.720;2022-07-18T06:35:31;19.70;99.90
7648;DHT22;3866;48.020;11.720;2022-07-18T06:38:01;20.00;99.90
7648;DHT22;3866;48.020;11.720;2022-07-18T06:40:28;20.10;99.90
7648;DHT22;3866;48.020;11.720;2022-07-18T06:42:55;20.10;99.90
7648;DHT22;3866;48.020;11.720;2022-07-18T06:45:26;20.00;99.90
7648;DHT22;3866;48.020;11.720;2022-07-18T06:47:55;20.20;99.90
7648;DHT22;3866;48.020;11.720;2022-07-18T06:50:24;20.70;99.90
7648;DHT22;3866;48.020;11.720;2022-07-18T06:52:52;20.80;99.90
7648;DHT22;3866;48.020;11.720;2022-07-18T06:55:19;21.10;99.90
7648;DHT22;3866;48.020;11.720;2022-07-18T06:57:50;21.40;99.90
7648;DHT22;3866;48.020;11.720;2022-07-18T07:00:17;21.50;99.90
7648;DHT22;3866;48.020;11.720;2022-07-18T07:02:45;21.40;99.90
7648;DHT22;3866;48.020;11.720;2022-07-18T07:05:18;21.90;99.90
7648;DHT22;3866;48.020;11.720;2022-07-18T07:07:46;22.30;99.90
7648;DHT22;3866;48.020;11.720;2022-07-18T07:10:15;22.70;99.90
7648;DHT22;3866;48.020;11.720;2022-07-18T07:12:44;23.10;99.90
7648;DHT22;3866;48.020;11.720;2022-07-18T07:15:12;23.30;99.90
7648;DHT22;3866;48.020;11.720;2022-07-18T07:17:40;23.70;99.90
7648;DHT22;3866;48.020;11.720;2022-07-18T07:20:08;24.40;99.90
7648;DHT22;3866;48.020;11.720;2022-07-18T07:22:48;25.00;99.90
7648;DHT22;3866;48.020;11.720;2022-07-18T07:25:17;25.60;99.90
7648;DHT22;3866;48.020;11.720;2022-07-18T07:27:44;25.60;99.90
7648;DHT22;3866;48.020;11.720;2022-07-18T07:30:12;26.20;99.90
7648;DHT22;3866;48.020;11.720;2022-07-18T07:32:44;26.20;99.90
7648;DHT22;3866;48.020;11.720;2022-07-18T07:35:14;26.20;99.90
7648;DHT22;3866;48.020;11.720;2022-07-18T07:37:45;26.70;99.90
7648;DHT22;3866;48.020;11.720;2022-07-18T07:40:15;27.20;99.90
7648;DHT22;3866;48.020;11.720;2022-07-18T07:42:43;26.80;99.90
7648;DHT22;3866;48.020;11.720;2022-07-18T07:45:12;26.70;99.90
7648;DHT22;3866;48.020;11.720;2022-07-18T07:47:40;27.40;99.90
7648;DHT22;3866;48.020;11.720;2022-07-18T07:50:09;27.30;99.90
7648;DHT22;3866;48.020;11.720;2022-07-18T07:52:38;26.80;99.90
7648;DHT22;3866;48.020;11.720;2022-07-18T07:55:06;27.30;99.90
7648;DHT22;3866;48.020;11.720;2022-07-18T07:57:35;28.10;99.90
7648;DHT22;3866;48.020;11.720;2022-07-18T08:00:05;29.00;99.20
7648;DHT22;3866;48.020;11.720;2022-07-18T08:02:33;28.80;99.90
7648;DHT22;3866;48.020;11.720;2022-07-18T08:05:00;28.20;99.90
7648;DHT22;3866;48.020;11.720;2022-07-18T08:07:27;28.10;99.90
7648;DHT22;3866;48.020;11.720;2022-07-18T08:09:57;28.80;99.90
7648;DHT22;3866;48.020;11.720;2022-07-18T08:12:24;28.80;97.80
7648;DHT22;3866;48.020;11.720;2022-07-18T08:14:54;29.10;97.70
7648;DHT22;3866;48.020;11.720;2022-07-18T08:17:22;28.50;96.50
7648;DHT22;3866;48.020;11.720;2022-07-18T08:19:50;28.70;97.20
7648;DHT22;3866;48.020;11.720;2022-07-18T08:22:16;28.60;97.40
7648;DHT22;3866;48.020;11.720;2022-07-18T08:24:45;28.90;96.60
7648;DHT22;3866;48.020;11.720;2022-07-18T08:27:13;29.10;95.60
7648;DHT22;3866;48.020;11.720;2022-07-18T08:29:41;28.90;96.80
7648;DHT22;3866;48.020;11.720;2022-07-18T08:32:12;28.60;96.40
7648;DHT22;3866;48.020;11.720;2022-07-18T08:34:40;28.10;96.90
7648;DHT22;3866;48.020;11.720;2022-07-18T08:37:07;28.40;97.10
7648;DHT22;3866;48.020;11.720;2022-07-18T08:39:34;28.50;96.70
7648;DHT22;3866;48.020;11.720;2022-07-18T08:42:01;28.90;96.40
7648;DHT22;3866;48.020;11.720;2022-07-18T08:44:30;28.80;96.50
7648;DHT22;3866;48.020;11.720;2022-07-18T08:47:00;29.30;96.60
7648;DHT22;3866;48.020;11.720;2022-07-18T08:49:29;29.40;95.60
7648;DHT22;3866;48.020;11.720;2022-07-18T08:51:58;29.00;95.80
7648;DHT22;3866;48.020;11.720;2022-07-18T08:54:27;29.10;96.30
7648;DHT22;3866;48.020;11.720;2022-07-18T08:56:55;29.20;95.50
7648;DHT22;3866;48.020;11.720;2022-07-18T08:59:23;29.30;95.00
7648;DHT22;3866;48.020;11.720;2022-07-18T09:01:51;29.70;94.90
7648;DHT22;3866;48.020;11.720;2022-07-18T09:04:36;29.40;94.90
7648;DHT22;3866;48.020;11.720;2022-07-18T09:07:04;29.60;93.80
7648;DHT22;3866;48.020;11.720;2022-07-18T09:09:32;29.10;94.90
7648;DHT22;3866;48.020;11.720;2022-07-18T09:12:02;28.70;95.10
7648;DHT22;3866;48.020;11.720;2022-07-18T09:14:35;28.80;93.90
7648;DHT22;3866;48.020;11.720;2022-07-18T09:17:08;28.90;93.50
7648;DHT22;3866;48.020;11.720;2022-07-18T09:19:40;28.80;92.90
7648;DHT22;3866;48.020;11.720;2022-07-18T09:22:16;28.60;93.50
7648;DHT22;3866;48.020;11.720;2022-07-18T09:24:57;28.30;92.70
7648;DHT22;3866;48.020;11.720;2022-07-18T09:27:31;28.10;92.90
7648;DHT22;3866;48.020;11.720;2022-07-18T09:30:13;28.30;93.10
7648;DHT22;3866;48.020;11.720;2022-07-18T09:32:43;28.40;93.00
7648;DHT22;3866;48.020;11.720;2022-07-18T09:35:13;28.30;93.80
7648;DHT22;3866;48.020;11.720;2022-07-18T09:37:56;28.40;92.80
7648;DHT22;3866;48.020;11.720;2022-07-18T09:40:26;27.80;92.10
7648;DHT22;3866;48.020;11.720;2022-07-18T09:42:56;27.50;92.30
7648;DHT22;3866;48.020;11.720;2022-07-18T09:45:26;27.40;92.40
7648;DHT22;3866;48.020;11.720;2022-07-18T09:47:56;27.30;92.50
7648;DHT22;3866;48.020;11.720;2022-07-18T09:50:28;26.80;93.10
7648;DHT22;3866;48.020;11.720;2022-07-18T09:53:08;27.00;91.40
7648;DHT22;3866;48.020;11.720;2022-07-18T09:55:42;26.70;92.00
7648;DHT22;3866;48.020;11.720;2022-07-18T09:58:12;26.60;91.80
7648;DHT22;3866;48.020;11.720;2022-07-18T10:00:42;26.90;92.00
7648;DHT22;3866;48.020;11.720;2022-07-18T10:03:10;26.80;91.20
7648;DHT22;3866;48.020;11.720;2022-07-18T10:05:41;26.70;90.80
7648;DHT22;3866;48.020;11.720;2022-07-18T10:08:09;26.70;91.80
7648;DHT22;3866;48.020;11.720;2022-07-18T10:10:40;26.80;91.80
7648;DHT22;3866;48.020;11.720;2022-07-18T10:13:09;26.70;92.20
7648;DHT22;3866;48.020;11.720;2022-07-18T10:15:38;27.10;91.10
7648;DHT22;3866;48.020;11.720;2022-07-18T10:18:08;27.10;90.00
7648;DHT22;3866;48.020;11.720;2022-07-18T10:20:41;26.60;91.40
7648;DHT22;3866;48.020;11.720;2022-07-18T10:23:17;26.80;90.70
7648;DHT22;3866;48.020;11.720;2022-07-18T10:26:07;26.90;91.40
7648;DHT22;3866;48.020;11.720;2022-07-18T10:28:35;27.00;91.90
7648;DHT22;3866;48.020;11.720;2022-07-18T10:31:13;26.70;91.70
7648;DHT22;3866;48.020;11.720;2022-07-18T10:33:44;26.80;92.10
7648;DHT22;3866;48.020;11.720;2022-07-18T10:36:17;26.90;92.00
7648;DHT22;3866;48.020;11.720;2022-07-18T10:39:06;26.80;92.10
7648;DHT22;3866;48.020;11.720;2022-07-18T10:44:43;27.00;92.80
7648;DHT22;3866;48.020;11.720;2022-07-18T10:47:12;26.70;92.70
7648;DHT22;3866;48.020;11.720;2022-07-18T10:50:05;26.60;93.90
7648;DHT22;3866;48.020;11.720;2022-07-18T10:52:59;26.80;93.10
7648;DHT22;3866;48.020;11.720;2022-07-18T10:55:30;27.00;92.30
7648;DHT22;3866;48.020;11.720;2022-07-18T10:58:19;26.80;92.40
7648;DHT22;3866;48.020;11.720;2022-07-18T11:00:50;27.00;92.80
7648;DHT22;3866;48.020;11.720;2022-07-18T11:03:26;27.00;92.40
7648;DHT22;3866;48.020;11.720;2022-07-18T11:05:55;27.10;92.30
7648;DHT22;3866;48.020;11.720;2022-07-18T11:08:25;27.00;93.20
7648;DHT22;3866;48.020;11.720;2022-07-18T11:11:04;27.20;93.20
7648;DHT22;3866;48.020;11.720;2022-07-18T11:13:33;27.40;92.60
7648;DHT22;3866;48.020;11.720;2022-07-18T11:16:02;27.40;93.70
7648;DHT22;3866;48.020;11.720;2022-07-18T11:18:33;27.50;91.70
7648;DHT22;3866;48.020;11.720;2022-07-18T11:21:00;27.30;92.80
7648;DHT22;3866;48.020;11.720;2022-07-18T11:23:29;27.30;92.40
7648;DHT22;3866;48.020;11.720;2022-07-18T11:25:57;27.40;91.90
7648;DHT22;3866;48.020;11.720;2022-07-18T11:28:27;27.50;92.20
7648;DHT22;3866;48.020;11.720;2022-07-18T11:31:02;27.30;91.80
7648;DHT22;3866;48.020;11.720;2022-07-18T11:33:31;27.20;92.40
7648;DHT22;3866;48.020;11.720;2022-07-18T11:36:03;27.10;91.70
7648;DHT22;3866;48.020;11.720;2022-07-18T11:38:33;27.10;91.70
7648;DHT22;3866;48.020;11.720;2022-07-18T11:41:02;27.10;91.90
7648;DHT22;3866;48.020;11.720;2022-07-18T11:43:29;27.10;92.60
7648;DHT22;3866;48.020;11.720;2022-07-18T11:46:04;27.20;93.00
7648;DHT22;3866;48.020;11.720;2022-07-18T11:48:34;27.20;92.30
7648;DHT22;3866;48.020;11.720;2022-07-18T11:51:02;27.30;92.40
7648;DHT22;3866;48.020;11.720;2022-07-18T11:53:34;27.30;93.00
7648;DHT22;3866;48.020;11.720;2022-07-18T11:56:07;27.60;92.60
7648;DHT22;3866;48.020;11.720;2022-07-18T11:58:36;27.90;93.40
7648;DHT22;3866;48.020;11.720;2022-07-18T12:01:03;28.10;92.50
7648;DHT22;3866;48.020;11.720;2022-07-18T12:03:33;28.20;92.90
7648;DHT22;3866;48.020;11.720;2022-07-18T12:06:10;28.30;93.20
7648;DHT22;3866;48.020;11.720;2022-07-18T12:08:43;28.70;92.30
7648;DHT22;3866;48.020;11.720;2022-07-18T12:11:15;29.30;92.50
7648;DHT22;3866;48.020;11.720;2022-07-18T12:13:53;29.90;91.50
7648;DHT22;3866;48.020;11.720;2022-07-18T12:16:29;30.40;91.00
7648;DHT22;3866;48.020;11.720;2022-07-18T12:19:01;31.60;90.50
7648;DHT22;3866;48.020;11.720;2022-07-18T12:21:49;31.50;90.40
7648;DHT22;3866;48.020;11.720;2022-07-18T12:24:24;31.90;89.60
7648;DHT22;3866;48.020;11.720;2022-07-18T12:27:11;32.00;89.10
7648;DHT22;3866;48.020;11.720;2022-07-18T12:30:07;31.50;89.80
7648;DHT22;3866;48.020;11.720;2022-07-18T12:32:41;31.60;90.10
7648;DHT22;3866;48.020;11.720;2022-07-18T12:35:12;32.40;87.60
7648;DHT22;3866;48.020;11.720;2022-07-18T12:37:40;32.40;89.20
7648;DHT22;3866;48.020;11.720;2022-07-18T12:40:12;32.40;87.10
7648;DHT22;3866;48.020;11.720;2022-07-18T12:42:41;31.50;88.90
7648;DHT22;3866;48.020;11.720;2022-07-18T12:45:09;31.40;89.70
7648;DHT22;3866;48.020;11.720;2022-07-18T12:47:40;31.00;87.90
7648;DHT22;3866;48.020;11.720;2022-07-18T12:50:09;31.30;90.90
7648;DHT22;3866;48.020;11.720;2022-07-18T12:52:36;31.90;89.50
7648;DHT22;3866;48.020;11.720;2022-07-18T12:55:05;32.90;86.00
7648;DHT22;3866;48.020;11.720;2022-07-18T12:57:33;32.40;86.20
7648;DHT22;3866;48.020;11.720;2022-07-18T13:00:00;31.70;87.20
7648;DHT22;3866;48.020;11.720;2022-07-18T13:02:28;31.30;88.60
7648;DHT22;3866;48.020;11.720;2022-07-18T13:04:55;31.10;86.20
7648;DHT22;3866;48.020;11.720;2022-07-18T13:07:23;31.70;87.20
7648;DHT22;3866;48.020;11.720;2022-07-18T13:09:52;32.30;87.10
7648;DHT22;3866;48.020;11.720;2022-07-18T13:12:21;32.80;85.90
7648;DHT22;3866;48.020;11.720;2022-07-18T13:14:51;32.20;86.90
7648;DHT22;3866;48.020;11.720;2022-07-18T13:17:19;31.60;87.10
7648;DHT22;3866;48.020;11.720;2022-07-18T13:19:47;31.30;86.10
7648;DHT22;3866;48.020;11.720;2022-07-18T13:22:15;30.90;89.10
7648;DHT22;3866;48.020;11.720;2022-07-18T13:24:42;30.30;88.90
7648;DHT22;3866;48.020;11.720;2022-07-18T13:27:10;31.50;89.20
7648;DHT22;3866;48.020;11.720;2022-07-18T13:29:37;31.50;87.10
7648;DHT22;3866;48.020;11.720;2022-07-18T13:32:06;31.30;86.90
7648;DHT22;3866;48.020;11.720;2022-07-18T13:34:34;31.40;87.20
7648;DHT22;3866;48.020;11.720;2022-07-18T13:37:01;31.00;89.70
7648;DHT22;3866;48.020;11.720;2022-07-18T13:39:28;29.90;88.80
7648;DHT22;3866;48.020;11.720;2022-07-18T13:41:55;30.50;90.30
7648;DHT22;3866;48.020;11.720;2022-07-18T13:44:23;31.20;88.50
7648;DHT22;3866;48.020;11.720;2022-07-18T13:46:50;31.30;89.20
7648;DHT22;3866;48.020;11.720;2022-07-18T13:49:19;30.50;89.20
7648;DHT22;3866;48.020;11.720;2022-07-18T13:51:46;30.60;88.80
7648;DHT22;3866;48.020;11.720;2022-07-18T13:54:14;31.10;87.20
7648;DHT22;3866;48.020;11.720;2022-07-18T13:56:43;31.40;88.80
7648;DHT22;3866;48.020;11.720;2022-07-18T13:59:11;31.80;87.40
7648;DHT22;3866;48.020;11.720;2022-07-18T14:01:41;31.50;86.60
7648;DHT22;3866;48.020;11.720;2022-07-18T14:04:08;30.70;88.60
7648;DHT22;3866;48.020;11.720;2022-07-18T14:06:38;30.90;90.00
7648;DHT22;3866;48.020;11.720;2022-07-18T14:09:05;31.30;87.60
7648;DHT22;3866;48.020;11.720;2022-07-18T14:11:37;30.70;88.40
7648;DHT22;3866;48.020;11.720;2022-07-18T14:14:06;30.50;89.20
7648;DHT22;3866;48.020;11.720;2022-07-18T14:16:34;30.10;90.20
7648;DHT22;3866;48.020;11.720;2022-07-18T14:19:04;29.90;90.30
7648;DHT22;3866;48.020;11.720;2022-07-18T14:21:32;29.80;90.40
7648;DHT22;3866;48.020;11.720;2022-07-18T14:24:00;30.10;89.80
7648;DHT22;3866;48.020;11.720;2022-07-18T14:26:30;30.20;90.70
7648;DHT22;3866;48.020;11.720;2022-07-18T14:28:56;30.30;90.10
7648;DHT22;3866;48.020;11.720;2022-07-18T14:31:25;30.30;90.30
7648;DHT22;3866;48.020;11.720;2022-07-18T14:33:52;30.40;90.10
7648;DHT22;3866;48.020;11.720;2022-07-18T14:36:21;30.20;91.40
7648;DHT22;3866;48.020;11.720;2022-07-18T14:38:50;30.10;91.40
7648;DHT22;3866;48.020;11.720;2022-07-18T14:41:19;29.70;90.70
7648;DHT22;3866;48.020;11.720;2022-07-18T14:43:48;29.60;91.70
7648;DHT22;3866;48.020;11.720;2022-07-18T14:46:17;29.10;91.90
7648;DHT22;3866;48.020;11.720;2022-07-18T14:48:44;28.70;92.00
7648;DHT22;3866;48.020;11.720;2022-07-18T14:51:14;28.80;92.40
7648;DHT22;3866;48.020;11.720;2022-07-18T14:53:42;28.70;92.30
7648;DHT22;3866;48.020;11.720;2022-07-18T14:56:09;28.90;92.30
7648;DHT22;3866;48.020;11.720;2022-07-18T14:58:38;29.10;92.50
7648;DHT22;3866;48.020;11.720;2022-07-18T15:01:05;29.00;92.50
7648;DHT22;3866;48.020;11.720;2022-07-18T15:03:34;28.90;92.60
7648;DHT22;3866;48.020;11.720;2022-07-18T15:06:02;29.10;92.50
7648;DHT22;3866;48.020;11.720;2022-07-18T15:08:29;28.90;93.20
7648;DHT22;3866;48.020;11.720;2022-07-18T15:10:57;29.00;92.80
7648;DHT22;3866;48.020;11.720;2022-07-18T15:13:24;28.90;92.60
7648;DHT22;3866;48.020;11.720;2022-07-18T15:15:53;29.00;93.40
7648;DHT22;3866;48.020;11.720;2022-07-18T15:18:21;28.80;93.20
7648;DHT22;3866;48.020;11.720;2022-07-18T15:20:48;28.80;93.80
7648;DHT22;3866;48.020;11.720;2022-07-18T15:23:16;28.60;93.70
7648;DHT22;3866;48.020;11.720;2022-07-18T15:25:44;28.60;93.60
7648;DHT22;3866;48.020;11.720;2022-07-18T15:28:14;28.50;94.00
7648;DHT22;3866;48.020;11.720;2022-07-18T15:30:41;28.30;94.00
7648;DHT22;3866;48.020;11.720;2022-07-18T15:33:09;28.30;94.20
7648;DHT22;3866;48.020;11.720;2022-07-18T15:35:37;28.30;94.60
7648;DHT22;3866;48.020;11.720;2022-07-18T15:38:05;28.20;94.60
7648;DHT22;3866;48.020;11.720;2022-07-18T15:40:32;28.40;94.20
7648;DHT22;3866;48.020;11.720;2022-07-18T15:42:59;28.50;94.20
7648;DHT22;3866;48.020;11.720;2022-07-18T15:45:26;28.40;93.90
7648;DHT22;3866;48.020;11.720;2022-07-18T15:47:54;28.30;94.10
7648;DHT22;3866;48.020;11.720;2022-07-18T15:50:24;28.30;94.30
7648;DHT22;3866;48.020;11.720;2022-07-18T15:52:52;28.20;94.50
7648;DHT22;3866;48.020;11.720;2022-07-18T15:55:20;28.20;94.30
7648;DHT22;3866;48.020;11.720;2022-07-18T15:57:47;28.20;94.30
7648;DHT22;3866;48.020;11.720;2022-07-18T16:00:15;28.10;94.20
7648;DHT22;3866;48.020;11.720;2022-07-18T16:02:44;28.10;94.30